Time;durP1;ratioP1;P1;durP2;ratioP2;P2;SDS_P1;SDS_P2;PMS_P1;PMS_P2;Temp;Humidity;BMP_temperature;BMP_pressure;BME280_temperature;BME280_humidity;BME280_pressure;Samples;Min_cycle;Max_cycle;Signal;HPM_P1;HPM_P2
2023/06/06 00:01:17;;;;;;;13.00;5.57;;;;;;;;;;5093156;28;20036;-71
2023/06/06 00:03:44;;;;;;;13.18;5.45;;;;;;;;;;5092858;28;20044;-70
2023/06/06 00:06:12;;;;;;;10.23;5.40;;;11.40;99.90;;;;;;5110780;28;20067;-70
2023/06/06 00:08:41;;;;;;;10.18;5.60;;;;;;;;;;5092505;28;20054;-71
2023/06/06 00:11:07;;;;;;;12.82;4.75;;;;;;;;;;5060574;28;20069;-71
2023/06/06 00:13:34;;;;;;;17.05;5.85;;;;;;;;;;5092920;28;20085;-70
2023/06/06 00:16:01;;;;;;;16.52;6.13;;;;;;;;;;5109456;28;20051;-70
2023/06/06 00:18:27;;;;;;;9.00;5.28;;;;;;;;;;5093379;28;20040;-69
2023/06/06 00:20:54;;;;;;;10.13;5.07;;;;;;;;;;5092589;28;20461;-69
2023/06/06 00:23:21;;;;;;;10.60;5.30;;;;;;;;;;5092452;28;20055;-70
2023/06/06 00:25:49;;;;;;;10.30;5.57;;;;;;;;;;5092444;28;20480;-70
2023/06/06 00:28:15;;;;;;;11.77;5.50;;;;;;;;;;5093043;28;20399;-70
2023/06/06 00:30:42;;;;;;;11.07;5.07;;;;;;;;;;5109237;28;20500;-69
2023/06/06 00:33:08;;;;;;;11.43;5.30;;;;;;;;;;5092725;28;20028;-70
2023/06/06 00:35:34;;;;;;;12.18;5.07;;;;;;;;;;5092348;28;20173;-70
2023/06/06 00:38:00;;;;;;;11.75;5.20;;;;;;;;;;5092886;28;20036;-70
2023/06/06 00:40:26;;;;;;;10.10;5.32;;;;;;;;;;5126314;27;20081;-68
2023/06/06 00:42:52;;;;;;;9.98;4.68;;;;;;;;;;5092568;28;20062;-69
2023/06/06 00:45:19;;;;;;;8.68;5.20;;;;;;;;;;5092047;28;20079;-70
2023/06/06 00:47:45;;;;;;;11.68;5.35;;;;;;;;;;5092050;28;20101;-69
2023/06/06 00:50:12;;;;;;;9.55;5.10;;;;;;;;;;5091931;28;20054;-70
2023/06/06 00:52:45;;;;;;;12.73;5.88;;;11.30;99.90;;;;;;5092592;28;20043;-68
2023/06/06 00:55:12;;;;;;;12.10;5.50;;;;;;;;;;5075375;28;20044;-69
2023/06/06 00:57:39;;;;;;;9.90;5.30;;;;;;;;;;5092291;28;20113;-70
2023/06/06 01:00:06;;;;;;;12.27;4.90;;;12.30;99.90;;;;;;5092144;28;20032;-69
2023/06/06 01:02:37;;;;;;;12.38;5.28;;;11.20;99.90;;;;;;5092439;28;20040;-69
2023/06/06 01:05:07;;;;;;;11.52;5.47;;;;;;;;;;5092109;28;20426;-69
2023/06/06 01:07:35;;;;;;;10.48;5.50;;;;;;;;;;5092208;28;20051;-69
2023/06/06 01:10:01;;;;;;;10.60;5.50;;;;;;;;;;5091695;28;20044;-69
2023/06/06 01:12:48;;;;;;;16.58;5.93;;;;;;;;;;5091885;28;20044;-69
2023/06/06 01:15:20;;;;;;;12.90;5.45;;;11.20;99.90;;;;;;5125664;27;20040;-69
2023/06/06 01:17:46;;;;;;;12.75;6.15;;;;;;;;;;5091941;28;20044;-70
2023/06/06 01:20:12;;;;;;;10.07;5.63;;;;;;;;;;5091050;28;20044;-69
2023/06/06 01:22:39;;;;;;;9.80;5.38;;;;;;;;;;5091567;28;20468;-69
2023/06/06 01:25:08;;;;;;;8.90;5.30;;;11.90;99.90;;;;;;5091494;28;20511;-69
2023/06/06 01:27:36;;;;;;;10.13;5.57;;;;;;;;;;5091588;28;20040;-69
2023/06/06 01:30:03;;;;;;;11.23;5.53;;;11.00;99.90;;;;;;5091469;28;20074;-69
2023/06/06 01:32:29;;;;;;;10.65;5.60;;;;;;;;;;5091923;28;20433;-69
2023/06/06 01:35:10;;;;;;;14.95;5.95;;;10.90;99.90;;;;;;5091419;28;20083;-69
2023/06/06 01:37:48;;;;;;;11.10;5.20;;;10.90;99.90;;;;;;5125559;28;20123;-70
2023/06/06 01:40:17;;;;;;;14.50;6.32;;;;;;;;;;5091865;28;20388;-69
2023/06/06 01:42:46;;;;;;;12.80;5.63;;;11.00;99.90;;;;;;5108461;28;20119;-69
2023/06/06 01:45:13;;;;;;;12.13;5.25;;;;;;;;;;5091478;28;20051;-69
2023/06/06 01:47:40;;;;;;;11.02;5.75;;;10.90;99.90;;;;;;5091461;28;20065;-69
2023/06/06 01:50:07;;;;;;;9.73;6.18;;;;;;;;;;5108439;28;20046;-69
2023/06/06 01:52:37;;;;;;;10.93;5.57;;;10.80;99.90;;;;;;5091845;28;20043;-69
2023/06/06 01:55:10;;;;;;;13.93;5.05;;;10.80;99.90;;;;;;5091345;28;20050;-69
2023/06/06 01:57:36;;;;;;;13.55;5.70;;;;;;;;;;5074738;28;20078;-69
2023/06/06 02:00:08;;;;;;;12.20;5.93;;;;;;;;;;5091255;28;20035;-70
2023/06/06 02:02:34;;;;;;;10.45;5.70;;;;;;;;;;5058449;28;20036;-70
2023/06/06 02:05:01;;;;;;;12.10;5.70;;;;;;;;;;5091568;28;20067;-70
2023/06/06 02:07:27;;;;;;;14.10;5.93;;;;;;;;;;5091641;28;20400;-70
2023/06/06 02:09:53;;;;;;;9.95;5.95;;;;;;;;;;5074534;28;20123;-70
2023/06/06 02:12:19;;;;;;;10.48;5.85;;;;;;;;;;5091463;28;20048;-70
2023/06/06 02:14:46;;;;;;;11.65;5.65;;;;;;;;;;5091314;28;20040;-70
2023/06/06 02:17:12;;;;;;;10.73;5.82;;;;;;;;;;5092583;28;20549;-70
2023/06/06 02:19:38;;;;;;;12.52;5.72;;;;;;;;;;5091272;28;20090;-69
2023/06/06 02:22:05;;;;;;;10.60;6.43;;;10.40;99.90;;;;;;5057864;28;20044;-69
2023/06/06 02:24:32;;;;;;;13.68;6.47;;;;;;;;;;5074017;28;20104;-70
2023/06/06 02:26:59;;;;;;;14.52;6.07;;;;;;;;;;5091612;28;20074;-70
2023/06/06 02:29:25;;;;;;;11.70;6.03;;;;;;;;;;5084633;28;20047;-70
2023/06/06 02:31:51;;;;;;;12.48;5.93;;;;;;;;;;5093521;28;20036;-70
2023/06/06 02:34:18;;;;;;;15.00;6.30;;;;;;;;;;5094469;28;20036;-70
2023/06/06 02:36:44;;;;;;;12.75;6.45;;;;;;;;;;5094757;28;20036;-70
2023/06/06 02:39:10;;;;;;;12.73;6.70;;;;;;;;;;5111634;28;20040;-70
2023/06/06 02:41:36;;;;;;;13.38;6.22;;;;;;;;;;5094676;28;20127;-70
2023/06/06 02:44:03;;;;;;;10.95;6.15;;;;;;;;;;5094709;28;20133;-70
2023/06/06 02:46:30;;;;;;;10.02;6.68;;;;;;;;;;5094548;28;20077;-70
2023/06/06 02:48:57;;;;;;;11.98;6.30;;;;;;;;;;5094581;28;20085;-69
2023/06/06 02:51:23;;;;;;;14.25;6.70;;;;;;;;;;5111203;28;20048;-70
2023/06/06 02:53:49;;;;;;;15.88;6.40;;;11.10;99.90;;;;;;5094118;28;20060;-70
2023/06/06 02:56:16;;;;;;;13.88;6.40;;;;;;;;;;5094777;28;20044;-70
2023/06/06 02:58:45;;;;;;;14.55;6.80;;;;;;;;;;5111264;28;20080;-69
2023/06/06 03:01:12;;;;;;;9.73;5.50;;;;;;;;;;5094205;28;20036;-69
2023/06/06 03:03:38;;;;;;;17.85;6.60;;;11.00;99.90;;;;;;5094280;28;20040;-69
2023/06/06 03:06:06;;;;;;;14.38;6.85;;;;;;;;;;5077323;28;20503;-69
2023/06/06 03:08:39;;;;;;;12.27;6.63;;;;;;;;;;5094181;28;20080;-70
2023/06/06 03:11:05;;;;;;;15.15;6.47;;;;;;;;;;5094226;28;20128;-70
2023/06/06 03:13:31;;;;;;;15.45;6.20;;;;;;;;;;5093974;28;20040;-70
2023/06/06 03:15:57;;;;;;;17.38;6.38;;;;;;;;;;5093770;28;20051;-70
2023/06/06 03:18:24;;;;;;;9.68;6.07;;;;;;;;;;5093860;28;20093;-70
2023/06/06 03:20:53;;;;;;;11.20;6.53;;;;;;;;;;5093548;28;20043;-70
2023/06/06 03:23:21;;;;;;;13.95;6.53;;;11.20;99.90;;;;;;5093109;28;20102;-70
2023/06/06 03:25:51;;;;;;;13.50;6.40;;;;;;;;;;5094006;28;20101;-70
2023/06/06 03:28:21;;;;;;;10.63;6.43;;;11.00;99.90;;;;;;5093859;28;20511;-70
2023/06/06 03:30:47;;;;;;;13.13;6.40;;;;;;;;;;5077626;28;20474;-70
2023/06/06 03:33:13;;;;;;;13.13;6.32;;;;;;;;;;5093720;28;20036;-69
2023/06/06 03:35:39;;;;;;;11.45;6.32;;;;;;;;;;5093465;28;20039;-70
2023/06/06 03:38:05;;;;;;;15.30;7.10;;;;;;;;;;5110754;28;20036;-70
2023/06/06 03:40:31;;;;;;;18.17;7.10;;;;;;;;;;5110270;28;20451;-69
2023/06/06 03:42:58;;;;;;;10.43;6.88;;;;;;;;;;5092749;28;20036;-69
2023/06/06 03:45:24;;;;;;;14.07;6.85;;;;;;;;;;5093297;28;20120;-69
2023/06/06 03:47:50;;;;;;;13.27;7.25;;;;;;;;;;5093860;28;20047;-69
2023/06/06 03:50:18;;;;;;;13.98;6.60;;;;;;;;;;5093338;28;20119;-69
2023/06/06 03:52:44;;;;;;;12.18;7.25;;;;;;;;;;5076445;28;20073;-70
2023/06/06 03:55:10;;;;;;;11.43;7.18;;;;;;;;;;5109151;28;20131;-69
2023/06/06 03:57:37;;;;;;;13.88;6.93;;;;;;;;;;5092324;28;20040;-69
2023/06/06 04:00:10;;;;;;;12.15;6.85;;;11.30;99.90;;;;;;5093223;28;20563;-69
2023/06/06 04:02:37;;;;;;;13.45;7.28;;;11.10;99.90;;;;;;5110579;28;20044;-69
2023/06/06 04:05:04;;;;;;;10.38;7.70;;;;;;;;;;5078628;28;20037;-68
2023/06/06 04:07:31;;;;;;;12.77;6.22;;;;;;;;;;5089966;28;20055;-69
2023/06/06 04:09:58;;;;;;;16.92;7.45;;;;;;;;;;5090077;28;20377;-69
2023/06/06 04:12:24;;;;;;;11.25;6.65;;;;;;;;;;5089607;28;20044;-68
2023/06/06 04:14:50;;;;;;;13.00;6.57;;;;;;;;;;5073043;28;20044;-69
2023/06/06 04:17:18;;;;;;;16.50;7.32;;;;;;;;;;5122163;27;20131;-68
2023/06/06 04:19:44;;;;;;;15.50;7.05;;;;;;;;;;5127201;27;20122;-68
2023/06/06 04:22:10;;;;;;;9.98;6.30;;;;;;;;;;5077157;28;20038;-68
2023/06/06 04:24:36;;;;;;;13.43;6.15;;;;;;;;;;5092580;28;20059;-68
2023/06/06 04:27:03;;;;;;;12.05;6.30;;;;;;;;;;5092830;28;20059;-69
2023/06/06 04:29:35;;;;;;;15.73;6.35;;;;;;;;;;5076262;28;20051;-69
2023/06/06 04:32:02;;;;;;;16.55;6.90;;;;;;;;;;5092856;28;20044;-68
2023/06/06 04:34:33;;;;;;;16.35;6.85;;;;;;;;;;5076256;28;20040;-68
2023/06/06 04:37:04;;;;;;;13.77;6.60;;;11.40;99.90;;;;;;5060165;28;20377;-69
2023/06/06 04:39:33;;;;;;;10.80;6.40;;;;;;;;;;5093136;28;20122;-69
2023/06/06 04:42:04;;;;;;;12.77;6.85;;;11.60;99.90;;;;;;5075611;28;20043;-69
2023/06/06 04:44:31;;;;;;;17.00;6.30;;;;;;;;;;5092702;28;20074;-69
2023/06/06 04:47:01;;;;;;;16.10;6.82;;;;;;;;;;5092557;28;20422;-69
2023/06/06 04:49:39;;;;;;;13.20;6.30;;;;;;;;;;5092600;28;20383;-69
2023/06/06 04:52:10;;;;;;;18.00;6.85;;;11.50;99.90;;;;;;5075469;28;20040;-69
2023/06/06 04:54:40;;;;;;;17.60;7.13;;;;;;;;;;5092844;28;20044;-69
2023/06/06 04:57:15;;;;;;;17.75;6.20;;;;;;;;;;5126683;27;20040;-69
2023/06/06 04:59:41;;;;;;;13.70;6.60;;;;;;;;;;5126817;27;20112;-69
2023/06/06 05:02:07;;;;;;;14.45;6.93;;;;;;;;;;5126680;27;20326;-69
2023/06/06 05:04:35;;;;;;;17.50;6.95;;;;;;;;;;5109316;28;20373;-69
2023/06/06 05:07:01;;;;;;;15.73;7.25;;;;;;;;;;5126589;27;20553;-69
2023/06/06 05:09:28;;;;;;;17.67;6.53;;;;;;;;;;5126663;27;20388;-70
2023/06/06 05:11:55;;;;;;;17.85;6.00;;;;;;;;;;5126554;27;20044;-69
2023/06/06 05:14:23;;;;;;;11.35;5.63;;;11.70;99.90;;;;;;5126302;27;20468;-70
2023/06/06 05:16:57;;;;;;;15.48;6.03;;;12.00;99.90;;;;;;5091976;28;20051;-70
2023/06/06 05:19:23;;;;;;;13.88;6.03;;;;;;;;;;5126204;27;20476;-70
2023/06/06 05:21:49;;;;;;;14.70;5.90;;;;;;;;;;5126380;27;20047;-70
2023/06/06 05:24:15;;;;;;;11.20;5.15;;;;;;;;;;5108613;28;20105;-70
2023/06/06 05:26:42;;;;;;;15.52;4.88;;;12.10;99.90;;;;;;5108963;28;20078;-74
2023/06/06 05:29:09;;;;;;;13.57;5.45;;;;;;;;;;5126251;27;20036;-69
2023/06/06 05:31:35;;;;;;;12.70;5.38;;;;;;;;;;5126058;27;20091;-69
2023/06/06 05:34:01;;;;;;;12.98;5.57;;;;;;;;;;5126202;27;20043;-69
2023/06/06 05:36:27;;;;;;;12.50;5.10;;;;;;;;;;5125982;27;20044;-69
2023/06/06 05:38:54;;;;;;;11.45;4.97;;;;;;;;;;5109069;28;20123;-69
2023/06/06 05:41:20;;;;;;;9.82;5.40;;;;;;;;;;5126131;28;20093;-69
2023/06/06 05:43:50;;;;;;;9.98;4.97;;;;;;;;;;5125997;28;20047;-69
2023/06/06 05:46:16;;;;;;;10.10;5.22;;;;;;;;;;5126431;28;20079;-69
2023/06/06 05:48:43;;;;;;;10.75;5.43;;;;;;;;;;5126208;28;20047;-69
2023/06/06 05:51:09;;;;;;;8.63;5.10;;;;;;;;;;5108771;28;20044;-70
2023/06/06 05:53:35;;;;;;;11.00;5.30;;;;;;;;;;5095882;28;20486;-68
2023/06/06 05:56:02;;;;;;;11.70;5.53;;;;;;;;;;5086334;28;20094;-69
2023/06/06 05:58:28;;;;;;;10.65;5.00;;;;;;;;;;5091698;28;20036;-69
2023/06/06 06:00:55;;;;;;;12.20;5.35;;;;;;;;;;5091568;28;20555;-69
2023/06/06 06:03:21;;;;;;;10.60;5.57;;;;;;;;;;5091543;28;20072;-70
2023/06/06 06:05:47;;;;;;;9.68;5.03;;;;;;;;;;5092075;28;20070;-70
2023/06/06 06:08:14;;;;;;;11.10;5.07;;;;;;;;;;5095474;28;20040;-70
2023/06/06 06:10:40;;;;;;;13.02;5.38;;;;;;;;;;5095511;28;20476;-69
2023/06/06 06:13:06;;;;;;;14.23;5.20;;;;;;;;;;5095246;28;20480;-70
2023/06/06 06:15:33;;;;;;;8.13;4.88;;;12.80;99.90;;;;;;5095262;28;20396;-70
2023/06/06 06:18:00;;;;;;;13.13;4.47;;;12.80;99.90;;;;;;5078260;28;20048;-69
2023/06/06 06:20:26;;;;;;;10.13;5.20;;;;;;;;;;5095602;28;20370;-69
2023/06/06 06:22:52;;;;;;;13.85;4.20;;;;;;;;;;5094820;28;20488;-70
2023/06/06 06:25:22;;;;;;;11.10;4.32;;;;;;;;;;5078223;28;20052;-69
2023/06/06 06:27:48;;;;;;;9.70;4.60;;;;;;;;;;5095124;28;20058;-70
2023/06/06 06:30:15;;;;;;;9.90;4.07;;;12.80;99.90;;;;;;5094913;28;20032;-69
2023/06/06 06:32:42;;;;;;;8.75;4.40;;;;;;;;;;5094729;28;20079;-69
2023/06/06 06:35:08;;;;;;;14.80;4.35;;;12.30;99.90;;;;;;5094562;28;20494;-69
2023/06/06 06:37:37;;;;;;;12.32;4.82;;;;;;;;;;5094353;28;20044;-69
2023/06/06 06:40:09;;;;;;;10.93;4.13;;;12.90;99.90;;;;;;5074509;28;20076;-69
2023/06/06 06:42:39;;;;;;;9.23;4.53;;;;;;;;;;5125775;27;20048;-69
2023/06/06 06:45:06;;;;;;;8.20;3.78;;;;;;;;;;5093371;28;20048;-69
2023/06/06 06:47:32;;;;;;;8.48;4.18;;;;;;;;;;5094747;28;20079;-69
2023/06/06 06:49:59;;;;;;;8.63;4.13;;;;;;;;;;5094706;28;20387;-69
2023/06/06 06:52:27;;;;;;;9.18;3.88;;;;;;;;;;5094554;28;20126;-69
2023/06/06 06:54:54;;;;;;;10.40;4.40;;;;;;;;;;5077583;28;20189;-69
2023/06/06 06:57:21;;;;;;;9.30;4.28;;;;;;;;;;5094406;28;20043;-69
2023/06/06 06:59:48;;;;;;;9.55;4.60;;;;;;;;;;5094529;28;20048;-69
2023/06/06 07:02:15;;;;;;;9.45;4.82;;;;;;;;;;5094817;28;20043;-69
2023/06/06 07:04:41;;;;;;;13.57;4.60;;;;;;;;;;5076615;28;20036;-70
2023/06/06 07:07:07;;;;;;;10.55;4.10;;;;;;;;;;5094258;28;20039;-70
2023/06/06 07:09:33;;;;;;;11.15;4.10;;;;;;;;;;5093828;28;20387;-70
2023/06/06 07:11:59;;;;;;;10.77;4.15;;;;;;;;;;5093932;28;20151;-69
2023/06/06 07:14:26;;;;;;;9.30;4.30;;;;;;;;;;5077055;28;20047;-70
2023/06/06 07:16:52;;;;;;;10.00;4.25;;;;;;;;;;5091947;28;20040;-71
2023/06/06 07:19:18;;;;;;;11.13;3.97;;;;;;;;;;5091464;28;20105;-71
2023/06/06 07:21:44;;;;;;;11.32;4.43;;;;;;;;;;5093616;28;20089;-70
2023/06/06 07:24:10;;;;;;;10.57;4.25;;;;;;;;;;5076341;28;20056;-70
2023/06/06 07:26:37;;;;;;;8.85;4.18;;;;;;;;;;5092102;28;20122;-70
2023/06/06 07:29:04;;;;;;;13.68;4.18;;;;;;;;;;5093616;28;20120;-70
2023/06/06 07:31:30;;;;;;;11.60;4.47;;;;;;;;;;5076039;28;20047;-70
2023/06/06 07:33:59;;;;;;;10.90;4.63;;;;;;;;;;5093037;28;20040;-70
2023/06/06 07:36:25;;;;;;;11.55;4.60;;;;;;;;;;5093308;28;20074;-70
2023/06/06 07:38:53;;;;;;;10.43;4.32;;;;;;;;;;5110385;27;20039;-70
2023/06/06 07:41:21;;;;;;;9.05;4.22;;;;;;;;;;5077493;28;20092;-70
2023/06/06 07:43:47;;;;;;;8.52;4.35;;;;;;;;;;5075864;28;20036;-69
2023/06/06 07:46:13;;;;;;;11.15;4.75;;;;;;;;;;5109177;27;20044;-69
2023/06/06 07:48:40;;;;;;;7.55;4.03;;;;;;;;;;5090516;28;20047;-70
2023/06/06 07:51:07;;;;;;;11.65;4.47;;;;;;;;;;5092416;28;20043;-70
2023/06/06 07:53:33;;;;;;;9.57;4.45;;;;;;;;;;5074484;28;20127;-70
2023/06/06 07:55:59;;;;;;;9.77;4.35;;;;;;;;;;5092435;28;20124;-70
2023/06/06 07:58:27;;;;;;;9.25;4.30;;;;;;;;;;5109155;28;20044;-70
2023/06/06 08:00:57;;;;;;;9.43;3.88;;;;;;;;;;5109095;28;20043;-70
2023/06/06 08:03:23;;;;;;;10.82;4.00;;;;;;;;;;5074484;28;20530;-70
2023/06/06 08:05:49;;;;;;;8.50;4.18;;;;;;;;;;5076010;28;20063;-70
2023/06/06 08:08:15;;;;;;;7.82;3.63;;;;;;;;;;5092515;28;20072;-70
2023/06/06 08:10:41;;;;;;;9.52;3.83;;;;;;;;;;5092754;28;20032;-70
2023/06/06 08:13:07;;;;;;;9.05;3.90;;;;;;;;;;5091939;28;20588;-70
2023/06/06 08:15:33;;;;;;;14.65;4.30;;;;;;;;;;5101898;28;20491;-73
2023/06/06 08:17:59;;;;;;;9.13;4.05;;;;;;;;;;5109783;28;20040;-71
2023/06/06 08:20:25;;;;;;;11.48;4.25;;;;;;;;;;5109761;28;20032;-70
2023/06/06 08:22:52;;;;;;;10.25;4.60;;;;;;;;;;5126773;27;20119;-70
2023/06/06 08:25:18;;;;;;;9.00;4.82;;;;;;;;;;5092437;28;20048;-70
2023/06/06 08:27:45;;;;;;;15.20;5.88;;;;;;;;;;5092900;28;20036;-70
2023/06/06 08:30:11;;;;;;;10.52;4.82;;;;;;;;;;5092046;28;20050;-70
2023/06/06 08:32:37;;;;;;;9.60;4.93;;;;;;;;;;5092830;28;20039;-70
2023/06/06 08:35:03;;;;;;;10.55;4.90;;;;;;;;;;5092006;28;20059;-70
2023/06/06 08:37:33;;;;;;;13.45;5.13;;;;;;;;;;5091576;28;20044;-72
2023/06/06 08:39:59;;;;;;;15.75;5.60;;;;;;;;;;5091643;28;20433;-72
2023/06/06 08:42:27;;;;;;;9.93;5.05;;;14.40;99.90;;;;;;5091568;28;20035;-70
2023/06/06 08:44:55;;;;;;;12.20;4.90;;;;;;;;;;5091209;28;20040;-70
2023/06/06 08:47:23;;;;;;;11.50;4.78;;;;;;;;;;5088663;28;20123;-72
2023/06/06 08:49:50;;;;;;;10.98;4.78;;;;;;;;;;5108006;28;20170;-71
2023/06/06 08:52:16;;;;;;;8.70;4.88;;;;;;;;;;5108046;28;20036;-71
2023/06/06 08:54:44;;;;;;;12.20;4.90;;;;;;;;;;5103362;28;20048;-71
2023/06/06 08:57:11;;;;;;;8.90;4.70;;;;;;;;;;5090634;28;20075;-70
2023/06/06 08:59:41;;;;;;;10.02;5.30;;;15.40;99.90;;;;;;5074399;28;20032;-70
2023/06/06 09:02:07;;;;;;;11.50;5.72;;;;;;;;;;5091427;28;20043;-70
2023/06/06 09:04:36;;;;;;;8.93;5.25;;;15.40;99.90;;;;;;5091388;28;20054;-71
2023/06/06 09:07:12;;;;;;;8.63;4.97;;;15.40;99.90;;;;;;5090708;28;20069;-70
2023/06/06 09:09:40;;;;;;;12.02;5.70;;;;;;;;;;5091348;28;20042;-70
2023/06/06 09:12:09;;;;;;;11.85;4.60;;;15.40;99.90;;;;;;5054280;28;20040;-71
2023/06/06 09:14:36;;;;;;;12.02;5.13;;;;;;;;;;5090766;28;20036;-71
2023/06/06 09:17:02;;;;;;;8.73;5.22;;;15.90;99.90;;;;;;5073934;28;20040;-71
2023/06/06 09:19:30;;;;;;;10.13;4.85;;;15.70;99.90;;;;;;5091111;28;20035;-71
2023/06/06 09:22:05;;;;;;;14.20;5.53;;;15.40;99.90;;;;;;5090604;28;20111;-72
2023/06/06 09:24:31;;;;;;;10.55;5.72;;;;;;;;;;5073828;28;20051;-71
2023/06/06 09:26:57;;;;;;;14.75;5.68;;;;;;;;;;5089252;28;20075;-69
2023/06/06 09:29:25;;;;;;;10.75;4.72;;;15.60;99.90;;;;;;5074532;28;20492;-72
2023/06/06 09:31:51;;;;;;;11.63;5.38;;;;;;;;;;5124586;27;20472;-70
2023/06/06 09:34:24;;;;;;;12.55;5.57;;;;;;;;;;5110214;27;20074;-69
2023/06/06 09:36:53;;;;;;;12.82;5.30;;;;;;;;;;5109599;28;20078;-69
2023/06/06 09:39:19;;;;;;;14.00;5.45;;;;;;;;;;5091860;28;20040;-69
2023/06/06 09:41:47;;;;;;;12.25;4.78;;;15.60;99.90;;;;;;5094585;28;20066;-69
2023/06/06 09:44:23;;;;;;;11.48;5.25;;;;;;;;;;5088421;28;20484;-68
2023/06/06 09:47:00;;;;;;;12.85;4.75;;;15.80;99.90;;;;;;5111213;28;20040;-69
2023/06/06 09:49:31;;;;;;;10.32;5.10;;;;;;;;;;5078093;28;20963;-68
2023/06/06 09:51:58;;;;;;;8.63;4.70;;;;;;;;;;5095587;28;20139;-68
2023/06/06 09:54:24;;;;;;;9.77;4.60;;;;;;;;;;5095706;28;20044;-69
2023/06/06 09:56:51;;;;;;;13.35;5.05;;;16.50;99.90;;;;;;5095821;28;20048;-69
2023/06/06 09:59:20;;;;;;;12.10;4.68;;;16.30;99.90;;;;;;5112292;28;20528;-69
2023/06/06 10:01:53;;;;;;;15.00;5.30;;;16.80;99.90;;;;;;5095375;28;20040;-68
2023/06/06 10:04:19;;;;;;;12.35;5.60;;;;;;;;;;5095438;28;20201;-68
2023/06/06 10:06:46;;;;;;;11.30;4.90;;;;;;;;;;5095010;28;20040;-69
2023/06/06 10:09:13;;;;;;;9.50;4.78;;;;;;;;;;5095567;28;20052;-69
2023/06/06 10:11:40;;;;;;;14.55;5.65;;;16.50;99.90;;;;;;5095476;28;20039;-69
2023/06/06 10:14:06;;;;;;;8.60;5.13;;;;;;;;;;5096044;28;20028;-68
2023/06/06 10:16:35;;;;;;;7.85;5.13;;;16.40;99.90;;;;;;5094752;28;20047;-68
2023/06/06 10:19:01;;;;;;;10.20;5.35;;;;;;;;;;5096349;28;20040;-69
2023/06/06 10:21:28;;;;;;;13.02;5.38;;;;;;;;;;5095135;28;20488;-69
2023/06/06 10:23:54;;;;;;;13.40;4.82;;;;;;;;;;5111689;28;20048;-69
2023/06/06 10:26:26;;;;;;;9.93;5.30;;;17.00;99.90;;;;;;5096517;28;20093;-68
2023/06/06 10:29:13;;;;;;;10.93;5.22;;;17.30;99.90;;;;;;5094823;28;20430;-68
2023/06/06 10:31:52;;;;;;;10.07;6.07;;;16.80;99.90;;;;;;5095095;28;20044;-68
2023/06/06 10:34:23;;;;;;;21.45;6.55;;;17.00;99.90;;;;;;5094787;28;20044;-68
2023/06/06 10:36:49;;;;;;;12.07;5.78;;;;;;;;;;5096220;28;20043;-68
2023/06/06 10:39:21;;;;;;;12.10;5.40;;;17.00;99.90;;;;;;5095008;28;20396;-68
2023/06/06 10:41:54;;;;;;;16.63;7.03;;;;;;;;;;5129089;27;20445;-68
2023/06/06 10:44:31;;;;;;;15.48;6.40;;;17.40;99.90;;;;;;5094263;28;20502;-68
2023/06/06 10:47:27;;;;;;;13.13;5.88;;;16.80;99.90;;;;;;5108286;28;20049;-68
2023/06/06 10:50:11;;;;;;;15.60;7.72;;;;;;;;;;5093531;28;20507;-68
2023/06/06 10:52:42;;;;;;;13.63;7.28;;;16.30;99.90;;;;;;5093873;28;20051;-68
2023/06/06 10:55:39;;;;;;;13.33;6.97;;;17.20;99.90;;;;;;5076665;28;20062;-68
2023/06/06 10:58:07;;;;;;;21.02;7.75;;;17.30;99.90;;;;;;5086007;28;20444;-68
2023/06/06 11:00:35;;;;;;;15.73;7.88;;;17.20;99.90;;;;;;5094467;28;20039;-68
2023/06/06 11:03:05;;;;;;;18.15;8.38;;;17.60;99.90;;;;;;5077985;28;20083;-68
2023/06/06 11:05:31;;;;;;;15.00;7.00;;;18.00;99.90;;;;;;5095704;28;20040;-69
2023/06/06 11:08:01;;;;;;;11.68;6.88;;;17.70;99.90;;;;;;5094495;28;20040;-69
2023/06/06 11:10:27;;;;;;;17.88;7.40;;;18.10;99.90;;;;;;5094323;28;20105;-69
2023/06/06 11:12:53;;;;;;;15.32;7.35;;;18.00;99.90;;;;;;5094097;28;20059;-69
2023/06/06 11:15:29;;;;;;;11.80;6.63;;;17.60;99.90;;;;;;5094067;28;20096;-68
2023/06/06 11:18:04;;;;;;;15.43;7.35;;;17.50;99.90;;;;;;5093965;28;20051;-69
2023/06/06 11:20:40;;;;;;;13.02;5.85;;;17.40;99.90;;;;;;5094133;28;20040;-69
2023/06/06 11:23:06;;;;;;;12.10;6.38;;;;;;;;;;5094629;28;20044;-69
2023/06/06 11:25:36;;;;;;;15.05;5.95;;;;;;;;;;5110804;28;20395;-69
2023/06/06 11:28:03;;;;;;;11.48;6.25;;;17.70;99.90;;;;;;5093969;28;20566;-69
2023/06/06 11:30:34;;;;;;;12.15;5.88;;;17.60;99.90;;;;;;5093870;28;20074;-69
2023/06/06 11:33:00;;;;;;;12.75;5.40;;;;;;;;;;5110703;28;20047;-69
2023/06/06 11:35:32;;;;;;;13.32;6.20;;;;;;;;;;5093471;28;20050;-69
2023/06/06 11:37:58;;;;;;;14.88;5.82;;;18.40;99.90;;;;;;5092934;28;20048;-69
2023/06/06 11:40:28;;;;;;;14.55;5.35;;;18.50;99.90;;;;;;5093955;28;20043;-69
2023/06/06 11:42:54;;;;;;;11.80;5.70;;;18.50;99.90;;;;;;5093654;28;20173;-69
2023/06/06 11:45:20;;;;;;;12.85;5.38;;;;;;;;;;5093982;28;20122;-69
2023/06/06 11:47:48;;;;;;;22.77;6.22;;;;;;;;;;5093786;28;20118;-69
2023/06/06 11:50:14;;;;;;;13.85;5.45;;;;;;;;;;5093789;28;20048;-69
2023/06/06 11:52:44;;;;;;;14.38;6.10;;;18.10;99.90;;;;;;5094760;28;20040;-69
2023/06/06 11:55:11;;;;;;;14.45;5.97;;;;;;;;;;5093502;28;20051;-69
2023/06/06 11:57:37;;;;;;;13.68;6.10;;;16.50;99.90;;;;;;5076493;28;20040;-69
2023/06/06 12:00:36;;;;;;;12.77;6.43;;;18.40;99.90;;;;;;5093444;28;20118;-69
2023/06/06 12:02:56;;;;;;;12.38;5.45;;;18.00;99.90;;;;;;5091594;28;20097;-69
2023/06/06 12:05:26;;;;;;;14.07;6.22;;;17.60;99.90;;;;;;5076143;28;20072;-69
2023/06/06 12:07:59;;;;;;;13.80;6.68;;;17.30;99.90;;;;;;5077941;28;20119;-69
2023/06/06 12:10:30;;;;;;;15.63;6.13;;;17.90;99.90;;;;;;5076638;28;20503;-68
2023/06/06 12:12:56;;;;;;;12.75;5.70;;;18.40;99.90;;;;;;5093030;28;20040;-68
2023/06/06 12:15:27;;;;;;;10.52;5.57;;;;;;;;;;5093173;28;20036;-68
2023/06/06 12:17:53;;;;;;;13.20;4.95;;;;;;;;;;5076134;28;20553;-68
2023/06/06 12:20:24;;;;;;;20.33;5.72;;;18.70;99.90;;;;;;5092933;28;20115;-68
2023/06/06 12:22:51;;;;;;;12.32;4.50;;;18.00;99.90;;;;;;5093002;28;20078;-68
2023/06/06 12:25:27;;;;;;;11.00;5.10;;;18.80;99.90;;;;;;5092638;28;20084;-68
2023/06/06 12:27:54;;;;;;;15.95;5.07;;;;;;;;;;5093145;28;20109;-69
2023/06/06 12:30:31;;;;;;;9.30;4.40;;;18.10;99.90;;;;;;5076109;28;20051;-68
2023/06/06 12:33:01;;;;;;;10.48;4.43;;;18.80;99.90;;;;;;5076092;28;20093;-68
2023/06/06 12:35:27;;;;;;;11.52;4.40;;;;;;;;;;5092789;28;20484;-68
2023/06/06 12:37:55;;;;;;;11.48;4.82;;;;;;;;;;5092291;28;20039;-68
2023/06/06 12:40:33;;;;;;;9.90;4.40;;;17.80;99.90;;;;;;5092450;28;20051;-68
2023/06/06 12:43:04;;;;;;;11.95;4.88;;;18.20;99.90;;;;;;5075629;28;20075;-68
2023/06/06 12:45:36;;;;;;;10.40;4.72;;;18.50;99.90;;;;;;5092746;28;20551;-68
2023/06/06 12:48:02;;;;;;;13.27;4.23;;;;;;;;;;5092178;28;20048;-68
2023/06/06 12:50:28;;;;;;;12.20;4.38;;;18.60;99.90;;;;;;5126748;27;20067;-69
2023/06/06 12:52:55;;;;;;;9.10;4.20;;;;;;;;;;5109286;28;20507;-69
2023/06/06 12:55:21;;;;;;;13.07;5.10;;;;;;;;;;5109184;28;20051;-69
2023/06/06 12:57:50;;;;;;;9.48;5.18;;;18.20;99.90;;;;;;5126296;27;20044;-69
2023/06/06 13:00:16;;;;;;;10.60;4.75;;;;;;;;;;5126739;27;20394;-69
2023/06/06 13:02:43;;;;;;;10.90;4.97;;;;;;;;;;5126369;27;20169;-68
2023/06/06 13:05:09;;;;;;;11.63;4.80;;;19.00;99.90;;;;;;5109604;28;20040;-68
2023/06/06 13:07:36;;;;;;;13.25;4.95;;;;;;;;;;5104830;28;20043;-68
2023/06/06 13:10:03;;;;;;;16.67;4.97;;;19.10;99.90;;;;;;5075307;28;20123;-68
2023/06/06 13:12:31;;;;;;;11.88;4.32;;;;;;;;;;5092512;28;20387;-68
2023/06/06 13:14:57;;;;;;;12.05;4.60;;;;;;;;;;5091619;28;20052;-68
2023/06/06 13:17:24;;;;;;;15.50;4.70;;;18.50;99.90;;;;;;5074788;28;20051;-68
2023/06/06 13:19:51;;;;;;;12.90;4.97;;;;;;;;;;5091955;28;20105;-68
2023/06/06 13:22:17;;;;;;;13.60;5.10;;;18.40;99.90;;;;;;5091148;28;20040;-68
2023/06/06 13:24:44;;;;;;;12.25;4.75;;;17.90;99.90;;;;;;5091237;28;20087;-68
2023/06/06 13:27:10;;;;;;;10.77;5.00;;;;;;;;;;5091227;28;20507;-69
2023/06/06 13:29:40;;;;;;;10.88;5.07;;;18.60;99.90;;;;;;5091776;28;20097;-69
2023/06/06 13:32:06;;;;;;;12.82;5.20;;;18.60;99.90;;;;;;5074878;28;20040;-69
2023/06/06 13:34:32;;;;;;;12.60;4.50;;;;;;;;;;5091707;28;20074;-69
2023/06/06 13:37:03;;;;;;;13.50;4.60;;;;;;;;;;5091661;28;20148;-69
2023/06/06 13:39:29;;;;;;;15.23;4.50;;;;;;;;;;5091839;28;20123;-69
2023/06/06 13:41:56;;;;;;;14.85;4.85;;;18.90;99.90;;;;;;5091464;28;20067;-69
2023/06/06 13:44:22;;;;;;;14.00;5.05;;;;;;;;;;5091856;28;20040;-69
2023/06/06 13:46:49;;;;;;;11.82;5.00;;;18.70;99.90;;;;;;5091443;28;20105;-69
2023/06/06 13:49:17;;;;;;;9.63;4.22;;;17.80;99.90;;;;;;5075097;28;20043;-69
2023/06/06 13:51:43;;;;;;;15.93;4.57;;;19.10;99.90;;;;;;5090540;28;20055;-69
2023/06/06 13:54:10;;;;;;;8.85;4.03;;;17.50;99.90;;;;;;5073013;28;20125;-69
2023/06/06 13:56:38;;;;;;;9.50;4.22;;;19.20;99.90;;;;;;5090798;28;20040;-69
2023/06/06 13:59:04;;;;;;;10.57;4.50;;;19.40;99.90;;;;;;5125315;27;20484;-69